createdAt,value
2018-09-23T00:00:45.583Z,15.11
2018-09-23T00:01:45.620Z,15.09
2018-09-23T00:02:45.809Z,15.12
2018-09-23T00:03:45.532Z,15.11
2018-09-23T00:04:45.494Z,15.11
2018-09-23T00:05:45.568Z,15.12
2018-09-23T00:06:45.554Z,15.14
2018-09-23T00:07:45.567Z,15.11
2018-09-23T00:08:45.708Z,15.12
2018-09-23T00:09:45.586Z,15.12
2018-09-23T00:10:45.498Z,15.11
2018-09-23T00:11:45.741Z,15.14
2018-09-23T00:12:45.502Z,15.11
2018-09-23T00:13:45.654Z,15.12
2018-09-23T00:14:45.649Z,15.09
2018-09-23T00:15:45.517Z,15.12
2018-09-23T00:16:45.514Z,15.11
2018-09-23T00:17:45.507Z,15.11
2018-09-23T00:18:45.602Z,15.08
2018-09-23T00:19:45.747Z,15.08
2018-09-23T00:20:45.476Z,15.08
2018-09-23T00:21:45.724Z,15.07
2018-09-23T00:22:45.747Z,15.05
2018-09-23T00:23:45.478Z,15.05
2018-09-23T00:24:45.483Z,15.04
2018-09-23T00:25:45.584Z,15
2018-09-23T00:26:45.506Z,14.98
2018-09-23T00:27:45.582Z,14.95
2018-09-23T00:28:45.558Z,14.98
2018-09-23T00:29:45.581Z,14.95
2018-09-23T00:30:45.486Z,14.95
2018-09-23T00:31:45.530Z,14.91
2018-09-23T00:32:45.528Z,14.9
2018-09-23T00:33:45.455Z,14.88
2018-09-23T00:34:45.472Z,14.86
2018-09-23T00:35:45.480Z,14.87
2018-09-23T00:36:45.464Z,14.84
2018-09-23T00:37:45.615Z,14.86
2018-09-23T00:38:45.452Z,14.86
2018-09-23T00:39:45.550Z,14.86
2018-09-23T00:40:45.443Z,14.83
2018-09-23T00:41:45.446Z,14.8
2018-09-23T00:42:45.453Z,14.77
2018-09-23T00:43:45.475Z,14.79
2018-09-23T00:44:45.443Z,14.76
2018-09-23T00:45:45.495Z,14.74
2018-09-23T00:46:45.431Z,14.76
2018-09-23T00:47:45.436Z,14.74
2018-09-23T00:48:45.438Z,14.74
2018-09-23T00:49:45.440Z,14.76
2018-09-23T00:50:45.468Z,14.77
2018-09-23T00:51:45.431Z,14.74
2018-09-23T00:52:45.462Z,14.73
2018-09-23T00:53:45.569Z,14.72
2018-09-23T00:54:45.543Z,14.72
2018-09-23T00:55:45.851Z,14.7
2018-09-23T00:56:45.480Z,14.72
2018-09-23T00:57:45.512Z,14.69
2018-09-23T00:58:45.439Z,14.69
2018-09-23T00:59:45.420Z,14.67
2018-09-23T01:00:45.608Z,14.69
2018-09-23T01:01:45.440Z,14.69
2018-09-23T01:02:45.424Z,14.69
2018-09-23T01:03:45.501Z,14.66
2018-09-23T01:04:45.443Z,14.67
2018-09-23T01:05:45.653Z,14.66
2018-09-23T01:06:45.423Z,14.69
2018-09-23T01:07:45.527Z,14.59
2018-09-23T01:08:45.453Z,14.56
2018-09-23T01:09:45.594Z,14.55
2018-09-23T01:10:45.996Z,14.53
2018-09-23T01:11:45.628Z,14.55
2018-09-23T01:12:45.504Z,14.52
2018-09-23T01:13:45.445Z,14.51
2018-09-23T01:14:45.545Z,14.48
2018-09-23T01:15:45.427Z,14.48
2018-09-23T01:16:45.550Z,14.48
2018-09-23T01:17:45.473Z,14.45
2018-09-23T01:18:45.390Z,14.43
2018-09-23T01:19:45.398Z,14.42
2018-09-23T01:20:45.495Z,14.43
2018-09-23T01:21:45.441Z,14.45
2018-09-23T01:22:45.473Z,14.39
2018-09-23T01:23:45.414Z,14.39
2018-09-23T01:24:45.394Z,14.38
2018-09-23T01:25:45.398Z,14.38
2018-09-23T01:26:45.411Z,14.38
2018-09-23T01:27:45.412Z,14.38
2018-09-23T01:28:45.441Z,14.32
2018-09-23T01:29:45.416Z,14.31
2018-09-23T01:30:45.487Z,14.28
2018-09-23T01:31:45.397Z,14.27
2018-09-23T01:32:45.438Z,14.27
2018-09-23T01:33:45.590Z,14.25
2018-09-23T01:34:45.394Z,14.27
2018-09-23T01:35:45.468Z,14.24
2018-09-23T01:36:45.448Z,14.19
2018-09-23T01:37:45.388Z,14.22
2018-09-23T01:38:45.570Z,14.21
2018-09-23T01:39:45.426Z,14.18
2018-09-23T01:40:45.434Z,14.18
2018-09-23T01:41:46.079Z,14.17
2018-09-23T01:42:45.474Z,14.11
2018-09-23T01:43:45.403Z,14.12
2018-09-23T01:44:45.495Z,14.11
2018-09-23T01:45:45.360Z,14.12
2018-09-23T01:46:45.387Z,14.08
2018-09-23T01:47:45.362Z,14.08
2018-09-23T01:48:46.241Z,14.07
2018-09-23T01:49:45.419Z,14.05
2018-09-23T01:50:45.428Z,14.02
2018-09-23T01:51:45.365Z,14.05
2018-09-23T01:52:45.489Z,14.04
2018-09-23T01:53:45.351Z,14.05
2018-09-23T01:54:45.357Z,14.02
2018-09-23T01:55:45.521Z,14.02
2018-09-23T01:56:45.367Z,14.02
2018-09-23T01:57:45.410Z,14.01
2018-09-23T01:58:45.357Z,13.97
2018-09-23T01:59:45.599Z,13.93
2018-09-23T02:00:45.346Z,13.91
2018-09-23T02:01:45.545Z,13.93
2018-09-23T02:02:45.345Z,13.9
2018-09-23T02:03:45.382Z,13.9
2018-09-23T02:04:45.332Z,13.9
2018-09-23T02:05:45.331Z,13.91
2018-09-23T02:06:45.340Z,13.89
2018-09-23T02:07:45.420Z,13.86
2018-09-23T02:08:45.353Z,13.87
2018-09-23T02:09:45.317Z,13.89
2018-09-23T02:10:45.395Z,13.87
2018-09-23T02:11:45.361Z,13.87
2018-09-23T02:12:45.367Z,13.89
2018-09-23T02:13:45.356Z,13.86
2018-09-23T02:14:45.398Z,13.87
2018-09-23T02:15:45.436Z,13.84
2018-09-23T02:16:45.380Z,13.87
2018-09-23T02:17:45.414Z,13.86
2018-09-23T02:18:45.803Z,13.89
2018-09-23T02:19:45.326Z,13.87
2018-09-23T02:20:45.382Z,13.86
2018-09-23T02:21:45.339Z,13.89
2018-09-23T02:22:45.490Z,13.87
2018-09-23T02:23:45.583Z,13.87
2018-09-23T02:24:45.322Z,13.87
2018-09-23T02:25:45.349Z,13.86
2018-09-23T02:26:45.321Z,13.86
2018-09-23T02:27:45.880Z,13.82
2018-09-23T02:28:46.070Z,13.82
2018-09-23T02:29:45.326Z,13.82
2018-09-23T02:30:45.302Z,13.79
2018-09-23T02:31:45.318Z,13.79
2018-09-23T02:32:45.358Z,13.76
2018-09-23T02:33:45.433Z,13.76
2018-09-23T02:34:45.473Z,13.74
2018-09-23T02:35:45.296Z,13.74
2018-09-23T02:36:45.289Z,13.7
2018-09-23T02:37:45.324Z,13.74
2018-09-23T02:38:45.322Z,13.72
2018-09-23T02:39:45.510Z,13.72
2018-09-23T02:40:45.276Z,13.73
2018-09-23T02:41:45.321Z,13.73
2018-09-23T02:42:45.459Z,13.72
2018-09-23T02:43:45.314Z,13.76
2018-09-23T02:44:45.340Z,13.74
2018-09-23T02:45:45.349Z,13.73
2018-09-23T02:46:45.344Z,13.7
2018-09-23T02:47:45.435Z,13.7
2018-09-23T02:48:45.258Z,13.69
2018-09-23T02:49:45.303Z,13.7
2018-09-23T02:50:45.423Z,13.64
2018-09-23T02:51:45.284Z,13.64
2018-09-23T02:52:45.309Z,13.6
2018-09-23T02:53:45.383Z,13.59
2018-09-23T02:54:45.374Z,13.6
2018-09-23T02:55:45.266Z,13.59
2018-09-23T02:56:45.313Z,13.62
2018-09-23T02:57:45.291Z,13.6
2018-09-23T02:58:45.434Z,13.59
2018-09-23T02:59:45.467Z,13.59
2018-09-23T03:00:45.342Z,13.56
2018-09-23T03:01:45.263Z,13.56
2018-09-23T03:02:45.520Z,13.55
2018-09-23T03:03:45.284Z,13.53
2018-09-23T03:04:45.648Z,13.57
2018-09-23T03:05:45.645Z,13.57
2018-09-23T03:06:45.254Z,13.53
2018-09-23T03:07:45.876Z,13.55
2018-09-23T03:08:45.357Z,13.52
2018-09-23T03:09:45.271Z,13.53
2018-09-23T03:10:45.289Z,13.55
2018-09-23T03:11:45.277Z,13.53
2018-09-23T03:12:45.405Z,13.53
2018-09-23T03:13:45.401Z,13.52
2018-09-23T03:14:45.246Z,13.53
2018-09-23T03:15:45.242Z,13.52
2018-09-23T03:16:45.227Z,13.49
2018-09-23T03:17:45.309Z,13.49
2018-09-23T03:18:45.266Z,13.47
2018-09-23T03:19:45.233Z,13.5
2018-09-23T03:20:45.256Z,13.52
2018-09-23T03:21:45.266Z,13.5
2018-09-23T03:22:45.270Z,13.52
2018-09-23T03:23:45.300Z,13.5
2018-09-23T03:24:45.281Z,13.49
2018-09-23T03:25:45.276Z,13.5
2018-09-23T03:26:45.295Z,13.49
2018-09-23T03:27:45.266Z,13.47
2018-09-23T03:28:45.242Z,13.45
2018-09-23T03:29:45.252Z,13.47
2018-09-23T03:30:45.263Z,13.46
2018-09-23T03:31:45.235Z,13.46
2018-09-23T03:32:45.227Z,13.46
2018-09-23T03:33:45.204Z,13.47
2018-09-23T03:34:45.239Z,13.46
2018-09-23T03:35:45.266Z,13.46
2018-09-23T03:36:45.229Z,13.47
2018-09-23T03:37:45.379Z,13.45
2018-09-23T03:38:45.217Z,13.45
2018-09-23T03:39:45.424Z,13.43
2018-09-23T03:40:45.248Z,13.45
2018-09-23T03:41:45.252Z,13.45
2018-09-23T03:42:45.608Z,13.43
2018-09-23T03:43:45.453Z,13.43
2018-09-23T03:44:45.222Z,13.42
2018-09-23T03:45:45.279Z,13.43
2018-09-23T03:46:45.233Z,13.41
2018-09-23T03:47:45.294Z,13.46
2018-09-23T03:48:45.340Z,13.43
2018-09-23T03:49:45.215Z,13.45
2018-09-23T03:50:45.365Z,13.42
2018-09-23T03:51:45.216Z,13.45
2018-09-23T03:52:45.274Z,13.43
2018-09-23T03:53:46.567Z,13.45
2018-09-23T03:54:45.241Z,13.47
2018-09-23T03:55:45.236Z,13.46
2018-09-23T03:56:45.228Z,13.46
2018-09-23T03:57:45.212Z,13.46
2018-09-23T03:58:45.322Z,13.47
2018-09-23T03:59:45.239Z,13.45
2018-09-23T04:00:45.237Z,13.45
2018-09-23T04:01:45.195Z,13.45
2018-09-23T04:02:45.182Z,13.45
2018-09-23T04:03:45.248Z,13.45
2018-09-23T04:04:45.215Z,13.45
2018-09-23T04:05:45.304Z,13.42
2018-09-23T04:06:45.350Z,13.42
2018-09-23T04:07:45.273Z,13.41
2018-09-23T04:08:45.668Z,13.42
2018-09-23T04:09:45.193Z,13.45
2018-09-23T04:10:45.205Z,13.43
2018-09-23T04:11:45.383Z,13.43
2018-09-23T04:12:45.354Z,13.41
2018-09-23T04:13:45.394Z,13.46
2018-09-23T04:14:45.193Z,13.42
2018-09-23T04:15:45.186Z,13.41
2018-09-23T04:16:45.169Z,13.39
2018-09-23T04:17:45.177Z,13.39
2018-09-23T04:18:45.352Z,13.41
2018-09-23T04:19:45.169Z,13.41
2018-09-23T04:20:45.207Z,13.42
2018-09-23T04:21:45.139Z,13.41
2018-09-23T04:22:45.250Z,13.41
2018-09-23T04:23:45.271Z,13.41
2018-09-23T04:24:45.237Z,13.42
2018-09-23T04:25:45.892Z,13.41
2018-09-23T04:26:45.295Z,13.41
2018-09-23T04:27:45.284Z,13.38
2018-09-23T04:28:45.219Z,13.39
2018-09-23T04:29:45.241Z,13.39
2018-09-23T04:30:45.141Z,13.35
2018-09-23T04:31:45.395Z,13.38
2018-09-23T04:32:45.413Z,13.38
2018-09-23T04:33:45.212Z,13.35
2018-09-23T04:34:45.466Z,13.35
2018-09-23T04:35:45.228Z,13.36
2018-09-23T04:36:45.182Z,13.36
2018-09-23T04:37:45.159Z,13.38
2018-09-23T04:38:45.317Z,13.39
2018-09-23T04:39:45.169Z,13.38
2018-09-23T04:40:45.143Z,13.39
2018-09-23T04:41:45.432Z,13.41
2018-09-23T04:42:45.147Z,13.39
2018-09-23T04:43:45.122Z,13.38
2018-09-23T04:44:45.280Z,13.38
2018-09-23T04:45:45.149Z,13.36
2018-09-23T04:46:45.177Z,13.34
2018-09-23T04:47:45.118Z,13.35
2018-09-23T04:48:45.109Z,13.38
2018-09-23T04:49:45.141Z,13.38
2018-09-23T04:50:45.138Z,13.41
2018-09-23T04:51:45.114Z,13.38
2018-09-23T04:52:45.169Z,13.38
2018-09-23T04:53:45.297Z,13.39
2018-09-23T04:54:45.143Z,13.39
2018-09-23T04:55:45.149Z,13.39
2018-09-23T04:56:45.115Z,13.41
2018-09-23T04:57:45.159Z,13.42
2018-09-23T04:58:45.106Z,13.42
2018-09-23T04:59:45.131Z,13.41
2018-09-23T05:00:45.766Z,13.42
2018-09-23T05:01:45.296Z,13.43
2018-09-23T05:02:45.169Z,13.45
2018-09-23T05:03:45.131Z,13.43
2018-09-23T05:04:45.168Z,13.45
2018-09-23T05:05:45.232Z,13.46
2018-09-23T05:06:45.332Z,13.49
2018-09-23T05:07:45.128Z,13.49
2018-09-23T05:08:48.883Z,13.5
2018-09-23T05:09:45.104Z,13.53
2018-09-23T05:10:45.322Z,13.52
2018-09-23T05:11:45.938Z,13.53
2018-09-23T05:12:45.196Z,13.55
2018-09-23T05:13:45.129Z,13.56
2018-09-23T05:14:45.124Z,13.57
2018-09-23T05:15:45.114Z,13.59
2018-09-23T05:16:45.096Z,13.59
2018-09-23T05:17:45.099Z,13.63
2018-09-23T05:18:45.691Z,13.64
2018-09-23T05:19:45.445Z,13.64
2018-09-23T05:20:45.151Z,13.66
2018-09-23T05:21:45.065Z,13.69
2018-09-23T05:22:45.208Z,13.69
2018-09-23T05:23:45.167Z,13.72
2018-09-23T05:24:45.109Z,13.74
2018-09-23T05:25:45.128Z,13.76
2018-09-23T05:26:45.239Z,13.76
2018-09-23T05:27:45.098Z,13.79
2018-09-23T05:28:45.268Z,13.77
2018-09-23T05:29:45.049Z,13.83
2018-09-23T05:30:45.049Z,13.84
2018-09-23T05:31:45.227Z,13.86
2018-09-23T05:32:45.131Z,13.86
2018-09-23T05:33:45.057Z,13.89
2018-09-23T05:34:45.256Z,13.91
2018-09-23T05:35:45.202Z,13.91
2018-09-23T05:36:45.147Z,13.91
2018-09-23T05:37:45.058Z,13.93
2018-09-23T05:38:45.068Z,13.96
2018-09-23T05:39:45.115Z,13.96
2018-09-23T05:40:49.319Z,13.98
2018-09-23T05:41:45.082Z,13.98
2018-09-23T05:42:45.105Z,14.01
2018-09-23T05:43:45.064Z,14.01
2018-09-23T05:44:45.203Z,14.02
2018-09-23T05:45:45.116Z,14.02
2018-09-23T05:46:45.152Z,14.04
2018-09-23T05:47:45.079Z,14.05
2018-09-23T05:48:45.158Z,14.04
2018-09-23T05:49:45.055Z,14.07
2018-09-23T05:50:45.020Z,14.05
2018-09-23T05:51:45.648Z,14.07
2018-09-23T05:52:45.176Z,14.11
2018-09-23T05:53:45.079Z,14.1
2018-09-23T05:54:45.075Z,14.1
2018-09-23T05:55:45.229Z,14.11
2018-09-23T05:56:45.087Z,14.14
2018-09-23T05:57:45.082Z,14.15
2018-09-23T05:58:45.136Z,14.17
2018-09-23T05:59:45.018Z,14.18
2018-09-23T06:00:45.048Z,14.21
2018-09-23T06:01:45.311Z,14.18
2018-09-23T06:02:45.082Z,14.22
2018-09-23T06:03:45.100Z,14.25
2018-09-23T06:04:45.000Z,14.24
2018-09-23T06:05:45.105Z,14.28
2018-09-23T06:06:45.016Z,14.29
2018-09-23T06:07:45.122Z,14.33
2018-09-23T06:08:45.175Z,14.32
2018-09-23T06:09:45.068Z,14.35
2018-09-23T06:10:45.066Z,14.36
2018-09-23T06:11:44.998Z,14.39
2018-09-23T06:12:45.081Z,14.38
2018-09-23T06:13:45.001Z,14.42
2018-09-23T06:14:45.026Z,14.4
2018-09-23T06:15:45.063Z,14.43
2018-09-23T06:16:45.009Z,14.45
2018-09-23T06:17:45.038Z,14.46
2018-09-23T06:18:45.021Z,14.48
2018-09-23T06:19:45.037Z,14.51
2018-09-23T06:20:45.082Z,14.53
2018-09-23T06:21:45.014Z,14.51
2018-09-23T06:22:45.008Z,14.53
2018-09-23T06:23:45.153Z,14.52
2018-09-23T06:24:45.017Z,14.53
2018-09-23T06:25:45.102Z,14.53
2018-09-23T06:26:45.163Z,14.53
2018-09-23T06:27:45.017Z,14.56
2018-09-23T06:28:45.091Z,14.58
2018-09-23T06:29:44.989Z,14.6
2018-09-23T06:30:45.031Z,14.6
2018-09-23T06:31:45.021Z,14.63
2018-09-23T06:32:45.083Z,14.67
2018-09-23T06:33:45.106Z,14.67
2018-09-23T06:34:45.240Z,14.67
2018-09-23T06:35:45.271Z,14.7
2018-09-23T06:36:45.120Z,14.72
2018-09-23T06:37:45.049Z,14.76
2018-09-23T06:38:45.642Z,14.77
2018-09-23T06:39:44.947Z,14.79
2018-09-23T06:40:45.409Z,14.79
2018-09-23T06:41:45.065Z,14.81
2018-09-23T06:42:44.972Z,14.81
2018-09-23T06:43:47.223Z,14.84
2018-09-23T06:44:45.044Z,14.84
2018-09-23T06:45:45.694Z,14.86
2018-09-23T06:46:44.961Z,14.86
2018-09-23T06:47:45.139Z,14.88
2018-09-23T06:48:45.105Z,14.91
2018-09-23T06:49:44.994Z,14.9
2018-09-23T06:50:44.967Z,14.92
2018-09-23T06:51:45.086Z,14.97
2018-09-23T06:52:45.047Z,14.98
2018-09-23T06:53:45.118Z,14.98
2018-09-23T06:54:45.071Z,15.01
2018-09-23T06:55:45.719Z,15.04
2018-09-23T06:56:45.166Z,15.04
2018-09-23T06:57:44.943Z,15.08
2018-09-23T06:58:44.999Z,15.07
2018-09-23T06:59:44.941Z,15.09
2018-09-23T07:00:45.117Z,15.11
2018-09-23T07:01:45.047Z,15.14
2018-09-23T07:02:45.083Z,15.14
2018-09-23T07:03:45.085Z,15.18
2018-09-23T07:04:45.320Z,15.21
2018-09-23T07:05:45.080Z,15.22
2018-09-23T07:06:44.943Z,15.21
2018-09-23T07:07:45.130Z,15.23
2018-09-23T07:08:45.221Z,15.26
2018-09-23T07:09:45.228Z,15.31
2018-09-23T07:10:45.128Z,15.32
2018-09-23T07:11:44.944Z,15.29
2018-09-23T07:12:45.164Z,15.34
2018-09-23T07:13:45.089Z,15.36
2018-09-23T07:14:45.367Z,15.39
2018-09-23T07:15:44.946Z,15.42
2018-09-23T07:16:45.091Z,15.41
2018-09-23T07:17:45.133Z,15.45
2018-09-23T07:18:44.947Z,15.49
2018-09-23T07:19:45.099Z,15.49
2018-09-23T07:20:45.035Z,15.5
2018-09-23T07:21:44.972Z,15.52
2018-09-23T07:22:44.953Z,15.56
2018-09-23T07:23:45.317Z,15.56
2018-09-23T07:24:44.949Z,15.57
2018-09-23T07:25:45.059Z,15.57
2018-09-23T07:26:44.901Z,15.62
2018-09-23T07:27:45.286Z,15.63
2018-09-23T07:28:44.992Z,15.66
2018-09-23T07:29:44.932Z,15.66
2018-09-23T07:30:45.016Z,15.7
2018-09-23T07:31:45.009Z,15.71
2018-09-23T07:32:44.959Z,15.74
2018-09-23T07:33:44.954Z,15.77
2018-09-23T07:34:44.884Z,15.76
2018-09-23T07:35:45.010Z,15.81
2018-09-23T07:36:45.256Z,15.84
2018-09-23T07:37:44.967Z,15.85
2018-09-23T07:38:45.044Z,15.88
2018-09-23T07:39:45.086Z,15.92
2018-09-23T07:40:44.899Z,15.92
2018-09-23T07:41:44.874Z,15.97
2018-09-23T07:42:45.021Z,15.99
2018-09-23T07:43:44.962Z,16.02
2018-09-23T07:44:45.102Z,16.02
2018-09-23T07:45:44.978Z,16.04
2018-09-23T07:46:45.018Z,16.07
2018-09-23T07:47:45.162Z,16.08
2018-09-23T07:48:44.995Z,16.08
2018-09-23T07:49:45.095Z,16.08
2018-09-23T07:50:45.359Z,16.08
2018-09-23T07:51:45.046Z,16.11
2018-09-23T07:52:44.990Z,16.15
2018-09-23T07:53:45.031Z,16.22
2018-09-23T07:54:45.407Z,16.25
2018-09-23T07:55:45.300Z,16.35
2018-09-23T07:56:45.046Z,16.4
2018-09-23T07:57:45.111Z,16.46
2018-09-23T07:58:46.086Z,16.62
2018-09-23T07:59:44.942Z,16.64
2018-09-23T08:00:45.011Z,16.77
2018-09-23T08:01:46.076Z,16.81
2018-09-23T08:02:45.057Z,16.92
2018-09-23T08:03:45.492Z,17.02
2018-09-23T08:04:44.895Z,17.09
2018-09-23T08:05:44.868Z,17.19
2018-09-23T08:06:46.075Z,17.21
2018-09-23T08:07:45.036Z,17.23
2018-09-23T08:08:44.996Z,17.22
2018-09-23T08:09:44.935Z,17.3
2018-09-23T08:10:45.108Z,17.3
2018-09-23T08:11:45.532Z,17.32
2018-09-23T08:12:45.812Z,17.4
2018-09-23T08:13:45.798Z,17.44
2018-09-23T08:14:47.130Z,17.54
2018-09-23T08:15:44.958Z,17.52
2018-09-23T08:16:45.036Z,17.56
2018-09-23T08:17:44.853Z,17.64
2018-09-23T08:18:45.203Z,17.64
2018-09-23T08:19:46.092Z,17.71
2018-09-23T08:20:45.045Z,17.71
2018-09-23T08:21:45.003Z,17.69
2018-09-23T08:22:44.965Z,17.77
2018-09-23T08:23:45.091Z,17.8
2018-09-23T08:24:44.836Z,17.84
2018-09-23T08:25:45.315Z,17.85
2018-09-23T08:26:44.841Z,17.84
2018-09-23T08:27:44.907Z,17.88
2018-09-23T08:28:44.861Z,17.94
2018-09-23T08:29:44.806Z,17.91
2018-09-23T08:30:44.815Z,17.97
2018-09-23T08:31:45.478Z,17.98
2018-09-23T08:32:45.259Z,18.01
2018-09-23T08:33:51.878Z,18.04
2018-09-23T08:34:45.093Z,18.05
2018-09-23T08:35:44.853Z,18.06
2018-09-23T08:36:45.008Z,18.08
2018-09-23T08:37:45.014Z,18.09
2018-09-23T08:38:44.818Z,18.13
2018-09-23T08:39:45.235Z,18.15
2018-09-23T08:40:44.874Z,18.22
2018-09-23T08:41:44.846Z,18.26
2018-09-23T08:42:44.926Z,18.29
2018-09-23T08:43:45.125Z,18.33
2018-09-23T08:44:44.912Z,18.37
2018-09-23T08:45:44.971Z,18.37
2018-09-23T08:46:44.787Z,18.39
2018-09-23T08:47:44.871Z,18.39
2018-09-23T08:48:44.756Z,18.47
2018-09-23T08:49:44.807Z,18.47
2018-09-23T08:50:44.833Z,18.47
2018-09-23T08:51:44.940Z,18.53
2018-09-23T08:52:44.790Z,18.54
2018-09-23T08:53:44.822Z,18.56
2018-09-23T08:54:44.824Z,18.54
2018-09-23T08:55:44.793Z,18.53
2018-09-23T08:56:44.861Z,18.5
2018-09-23T08:57:45.122Z,18.6
2018-09-23T08:58:44.953Z,18.56
2018-09-23T08:59:44.782Z,18.57
2018-09-23T09:00:44.836Z,18.56
2018-09-23T09:01:44.789Z,18.56
2018-09-23T09:02:44.814Z,18.56
2018-09-23T09:03:45.115Z,18.54
2018-09-23T09:04:44.809Z,18.54
2018-09-23T09:05:44.823Z,18.53
2018-09-23T09:06:44.832Z,18.54
2018-09-23T09:07:44.812Z,18.53
2018-09-23T09:08:44.843Z,18.53
2018-09-23T09:09:44.795Z,18.49
2018-09-23T09:10:45.062Z,18.52
2018-09-23T09:11:45.110Z,18.53
2018-09-23T09:12:44.768Z,18.5
2018-09-23T09:13:44.807Z,18.5
2018-09-23T09:14:44.772Z,18.49
2018-09-23T09:15:50.312Z,18.49
2018-09-23T09:16:45.097Z,18.47
2018-09-23T09:17:44.983Z,18.46
2018-09-23T09:18:45.676Z,18.44
2018-09-23T09:19:44.772Z,18.42
2018-09-23T09:20:46.184Z,18.42
2018-09-23T09:21:45.037Z,18.42
2018-09-23T09:22:44.790Z,18.42
2018-09-23T09:23:45.007Z,18.42
2018-09-23T09:24:44.795Z,18.42
2018-09-23T09:25:44.804Z,18.43
2018-09-23T09:26:45.474Z,18.44
2018-09-23T09:27:45.023Z,18.46
2018-09-23T09:28:44.823Z,18.47
2018-09-23T09:29:45.137Z,18.47
2018-09-23T09:30:44.929Z,18.47
2018-09-23T09:31:44.944Z,18.49
2018-09-23T09:32:44.946Z,18.49
2018-09-23T09:33:45.163Z,18.49
2018-09-23T09:34:44.909Z,18.5
2018-09-23T09:35:45.081Z,18.52
2018-09-23T09:36:45.068Z,18.53
2018-09-23T09:37:44.777Z,18.54
2018-09-23T09:38:44.939Z,18.53
2018-09-23T09:39:44.902Z,18.61
2018-09-23T09:40:45.009Z,18.59
2018-09-23T09:41:44.906Z,18.6
2018-09-23T09:42:44.832Z,18.61
2018-09-23T09:43:45.636Z,18.66
2018-09-23T09:44:45.243Z,18.68
2018-09-23T09:45:45.136Z,18.67
2018-09-23T09:46:44.945Z,18.68
2018-09-23T09:47:44.937Z,18.71
2018-09-23T09:48:45.141Z,18.71
2018-09-23T09:49:44.964Z,18.75
2018-09-23T09:50:45.482Z,18.71
2018-09-23T09:51:45.271Z,18.77
2018-09-23T09:52:44.992Z,18.8
2018-09-23T09:53:44.773Z,18.81
2018-09-23T09:54:44.883Z,18.82
2018-09-23T09:55:45.110Z,18.84
2018-09-23T09:56:44.899Z,18.85
2018-09-23T09:57:45.021Z,18.88
2018-09-23T09:58:45.420Z,18.91
2018-09-23T09:59:44.959Z,18.92
2018-09-23T10:00:45.206Z,18.91
2018-09-23T10:01:44.786Z,18.95
2018-09-23T10:02:44.859Z,18.97
2018-09-23T10:03:44.886Z,18.99
2018-09-23T10:04:45.070Z,18.98
2018-09-23T10:05:44.884Z,18.95
2018-09-23T10:06:44.868Z,19.02
2018-09-23T10:07:44.746Z,19.06
2018-09-23T10:08:45.001Z,19.1
2018-09-23T10:09:45.501Z,19.1
2018-09-23T10:10:44.770Z,19.15
2018-09-23T10:11:45.000Z,19.21
2018-09-23T10:12:44.774Z,19.23
2018-09-23T10:13:44.736Z,19.23
2018-09-23T10:14:44.920Z,19.26
2018-09-23T10:15:44.702Z,19.27
2018-09-23T10:16:44.679Z,19.27
2018-09-23T10:17:44.958Z,19.33
2018-09-23T10:18:44.668Z,19.34
2018-09-23T10:19:44.890Z,19.34
2018-09-23T10:20:44.980Z,19.33
2018-09-23T10:21:44.728Z,19.37
2018-09-23T10:22:45.604Z,19.4
2018-09-23T10:23:46.536Z,19.4
2018-09-23T10:24:44.698Z,19.43
2018-09-23T10:25:44.757Z,19.44
2018-09-23T10:26:44.680Z,19.47
2018-09-23T10:27:44.737Z,19.5
2018-09-23T10:28:44.922Z,19.53
2018-09-23T10:29:45.223Z,19.51
2018-09-23T10:30:44.665Z,19.54
2018-09-23T10:31:45.044Z,19.54
2018-09-23T10:32:44.868Z,19.53
2018-09-23T10:33:44.727Z,19.56
2018-09-23T10:34:44.822Z,19.61
2018-09-23T10:35:45.901Z,19.67
2018-09-23T10:36:44.849Z,19.68
2018-09-23T10:37:44.800Z,19.7
2018-09-23T10:38:44.798Z,19.74
2018-09-23T10:39:44.681Z,19.78
2018-09-23T10:40:44.750Z,19.79
2018-09-23T10:41:45.834Z,19.81
2018-09-23T10:42:44.798Z,19.85
2018-09-23T10:43:44.678Z,19.86
2018-09-23T10:44:44.711Z,19.91
2018-09-23T10:45:45.245Z,19.96
2018-09-23T10:46:44.755Z,20.04
2018-09-23T10:47:44.816Z,20.04
2018-09-23T10:48:44.753Z,20.02
2018-09-23T10:49:44.781Z,20.08
2018-09-23T10:50:44.871Z,20.15
2018-09-23T10:51:44.750Z,20.17
2018-09-23T10:52:44.795Z,20.22
2018-09-23T10:53:44.621Z,20.2
2018-09-23T10:54:44.707Z,20.2
2018-09-23T10:55:44.993Z,20.27
2018-09-23T10:56:44.674Z,20.32
2018-09-23T10:57:44.742Z,20.33
2018-09-23T10:58:44.737Z,20.43
2018-09-23T10:59:45.860Z,20.47
2018-09-23T11:00:44.699Z,20.47
2018-09-23T11:01:45.156Z,20.46
2018-09-23T11:02:48.260Z,20.5
2018-09-23T11:03:44.871Z,20.5
2018-09-23T11:04:44.648Z,20.6
2018-09-23T11:05:44.652Z,20.64
2018-09-23T11:06:44.797Z,20.65
2018-09-23T11:07:44.637Z,20.65
2018-09-23T11:08:44.784Z,20.64
2018-09-23T11:09:45.090Z,20.65
2018-09-23T11:10:44.630Z,20.67
2018-09-23T11:11:45.250Z,20.67
2018-09-23T11:12:44.656Z,20.7
2018-09-23T11:13:44.650Z,20.7
2018-09-23T11:14:44.770Z,20.71
2018-09-23T11:15:44.766Z,20.71
2018-09-23T11:16:44.929Z,20.75
2018-09-23T11:17:44.645Z,20.79
2018-09-23T11:18:44.786Z,20.78
2018-09-23T11:19:44.688Z,20.79
2018-09-23T11:20:44.637Z,20.78
2018-09-23T11:21:44.915Z,20.85
2018-09-23T11:22:44.778Z,20.81
2018-09-23T11:23:44.650Z,20.81
2018-09-23T11:24:45.040Z,20.88
2018-09-23T11:25:44.633Z,20.91
2018-09-23T11:26:44.646Z,20.95
2018-09-23T11:27:44.847Z,20.99
2018-09-23T11:28:44.657Z,21.02
2018-09-23T11:29:44.668Z,21.03
2018-09-23T11:30:44.958Z,21.03
2018-09-23T11:31:44.674Z,20.99
2018-09-23T11:32:44.613Z,21.05
2018-09-23T11:33:44.796Z,21.07
2018-09-23T11:34:44.962Z,21.09
2018-09-23T11:35:44.602Z,21.1
2018-09-23T11:36:44.767Z,21.12
2018-09-23T11:37:44.614Z,21.19
2018-09-23T11:38:44.623Z,21.26
2018-09-23T11:39:46.152Z,21.32
2018-09-23T11:40:44.591Z,21.29
2018-09-23T11:41:44.592Z,21.34
2018-09-23T11:42:44.718Z,21.33
2018-09-23T11:43:44.691Z,21.4
2018-09-23T11:44:44.861Z,21.43
2018-09-23T11:45:44.668Z,21.47
2018-09-23T11:46:44.613Z,21.51
2018-09-23T11:47:44.776Z,21.5
2018-09-23T11:48:44.684Z,21.54
2018-09-23T11:49:44.893Z,21.6
2018-09-23T11:50:44.781Z,21.58
2018-09-23T11:51:44.771Z,21.58
2018-09-23T11:52:44.616Z,21.57
2018-09-23T11:53:44.696Z,21.64
2018-09-23T11:54:44.754Z,21.67
2018-09-23T11:55:44.719Z,21.71
2018-09-23T11:56:44.977Z,21.79
2018-09-23T11:57:44.678Z,21.77
2018-09-23T11:58:44.924Z,21.79
2018-09-23T11:59:44.881Z,21.88
2018-09-23T12:00:44.800Z,21.94
2018-09-23T12:01:44.700Z,21.95
2018-09-23T12:02:44.900Z,21.99
2018-09-23T12:03:44.615Z,22.03
2018-09-23T12:04:44.589Z,22.11
2018-09-23T12:05:44.766Z,22.16
2018-09-23T12:06:44.795Z,22.2
2018-09-23T12:07:44.764Z,22.2
2018-09-23T12:08:44.668Z,22.17
2018-09-23T12:09:44.746Z,22.19
2018-09-23T12:10:44.657Z,22.19
2018-09-23T12:11:45.240Z,22.29
2018-09-23T12:12:44.685Z,22.33
2018-09-23T12:13:44.710Z,22.31
2018-09-23T12:14:44.918Z,22.39
2018-09-23T12:15:45.235Z,22.34
2018-09-23T12:16:44.572Z,22.41
2018-09-23T12:17:44.619Z,22.47
2018-09-23T12:18:44.718Z,22.48
2018-09-23T12:19:44.739Z,22.56
2018-09-23T12:20:45.305Z,22.6
2018-09-23T12:21:44.525Z,22.67
2018-09-23T12:22:44.747Z,22.74
2018-09-23T12:23:44.617Z,22.78
2018-09-23T12:24:44.554Z,22.84
2018-09-23T12:25:45.078Z,22.92
2018-09-23T12:26:44.675Z,22.92
2018-09-23T12:27:44.935Z,23.02
2018-09-23T12:28:44.560Z,23.03
2018-09-23T12:29:44.928Z,23.12
2018-09-23T12:30:44.563Z,23.16
2018-09-23T12:31:44.535Z,23.23
2018-09-23T12:32:44.550Z,23.39
2018-09-23T12:33:44.563Z,23.41
2018-09-23T12:34:44.657Z,23.41
2018-09-23T12:35:44.896Z,23.46
2018-09-23T12:36:44.598Z,23.53
2018-09-23T12:37:44.618Z,23.53
2018-09-23T12:38:44.725Z,23.53
2018-09-23T12:39:45.142Z,23.44
2018-09-23T12:40:44.534Z,23.43
2018-09-23T12:41:44.726Z,23.4
2018-09-23T12:42:44.529Z,23.39
2018-09-23T12:43:44.544Z,23.37
2018-09-23T12:44:44.601Z,23.3
2018-09-23T12:45:44.569Z,23.32
2018-09-23T12:46:44.543Z,23.32
2018-09-23T12:47:44.578Z,23.32
2018-09-23T12:48:44.870Z,23.33
2018-09-23T12:49:44.656Z,23.36
2018-09-23T12:50:45.203Z,23.27
2018-09-23T12:51:44.540Z,23.26
2018-09-23T12:52:44.530Z,23.29
2018-09-23T12:53:44.498Z,23.29
2018-09-23T12:54:44.513Z,23.39